Maritime Instructor — WCW8625 — position and weather

sailwx.info

Track history (hours):
 
Tides and Currents Weather Stations Pressure Air Temp Water Temp Dewpoint Dewpoint Depression Visibility Wind Speed Wind Dir Waves Ship Positions

Maritime Instructor

Owner: WASHINGTON, STATE OF, SEATTLE, WA. More information available from US FCC via Universal Licensing System and Coast Guard Vessel Documentation Center.

Last reported at 2016-May-04 02:19 UTC. Time now 2016-May-05 02:48 UTC.
Position N 47°40' W 122°23'.

Length 30 m; draft 2 m.

Type: Ship. MMSI: 303556000.

Date/timePositionNaut miles runAvg speedWind from/ knotsBaromVisibWave heightAir tempDewpointWater temp
2016-May-04 02:19N 47°40' W 122°23'1 1.1
2016-May-04 01:33N 47°40' W 122°24'6 5.6
2016-May-04 00:33N 47°45' W 122°25'8 8.4
2016-May-03 23:34N 47°54' W 122°22'8 7.8
2016-May-03 22:33N 47°59' W 122°14'1 0.8
2016-May-03 21:33N 47°60' W 122°13'0 0.1
2016-May-03 20:33N 47°60' W 122°13'3 3.1
2016-May-03 19:33N 48°01' W 122°18'7 6.7
2016-May-03 18:33N 47°55' W 122°21'9 9.5
2016-May-03 17:33N 47°46' W 122°25'6 6.1
2016-May-03 16:33N 47°40' W 122°23'1 0.5
2016-May-03 15:33N 47°40' W 122°23'0 0.0
2016-May-03 14:33N 47°40' W 122°23'0 0.0
2016-May-03 13:33N 47°40' W 122°23'0 0.0
2016-May-03 12:33N 47°40' W 122°23'0 0.0
2016-May-03 11:33N 47°40' W 122°23'0 0.0
2016-May-03 10:33N 47°40' W 122°23'0 0.0
2016-May-03 09:33N 47°40' W 122°23'0 0.0
2016-May-03 08:34N 47°40' W 122°23'0 0.0
2016-May-03 07:34N 47°40' W 122°23'0 0.0
2016-May-03 06:33N 47°40' W 122°23'0 0.0
2016-May-03 05:33N 47°40' W 122°23'0 0.0
2016-May-03 04:33N 47°40' W 122°23'0 0.0
2016-May-03 03:33N 47°40' W 122°23'0 0.0
2016-May-03 02:33N 47°40' W 122°23'0 0.0
2016-May-03 01:34N 47°40' W 122°23'0 0.0
2016-May-03 00:33N 47°40' W 122°23'0 0.0
2016-May-02 23:33N 47°40' W 122°23'0 0.0
2016-May-02 22:33N 47°40' W 122°23'0 0.0
2016-May-02 21:34N 47°40' W 122°23'0 0.0
2016-May-02 20:33N 47°40' W 122°23'0 0.0
2016-May-02 19:33N 47°40' W 122°23'0 0.0
2016-May-02 18:33N 47°40' W 122°23'0 0.0
2016-May-02 17:33N 47°40' W 122°23'0 0.0
2016-May-02 16:33N 47°40' W 122°23'0 0.0
2016-May-02 15:33N 47°40' W 122°23'0 0.0
2016-May-02 14:33N 47°40' W 122°23'0 0.0
2016-May-02 13:33N 47°40' W 122°23'0 0.0
2016-May-02 12:33N 47°40' W 122°23'0 0.0
2016-May-02 11:33N 47°40' W 122°23'0 0.0
2016-May-02 10:33N 47°40' W 122°23'0 0.0
2016-May-02 09:34N 47°40' W 122°23'0 0.0
2016-May-02 08:33N 47°40' W 122°23'0 0.0
2016-May-02 07:33N 47°40' W 122°23'0 0.0
2016-May-02 06:33N 47°40' W 122°23'0 0.0
2016-May-02 05:33N 47°40' W 122°23'0 0.0
2016-May-02 04:33N 47°40' W 122°23'0 0.0
2016-May-02 03:33N 47°40' W 122°23'0 0.0
2016-May-02 02:33N 47°40' W 122°23'0 0.0
2016-May-02 01:33N 47°40' W 122°23'0 0.0
2016-May-02 00:33N 47°40' W 122°23'0 0.0
2016-May-01 23:33N 47°40' W 122°23'0 0.0
2016-May-01 22:33N 47°40' W 122°23'0 0.0
2016-May-01 21:33N 47°40' W 122°23'0 0.0
2016-May-01 20:33N 47°40' W 122°23'0 0.0
2016-May-01 19:33N 47°40' W 122°23'0 0.0
2016-May-01 18:33N 47°40' W 122°23'0 0.0
2016-May-01 17:33N 47°40' W 122°23'0 0.0
2016-May-01 16:33N 47°40' W 122°23'0 0.0
2016-May-01 15:33N 47°40' W 122°23'0 0.0
2016-May-01 14:33N 47°40' W 122°23'0 0.0
2016-May-01 13:33N 47°40' W 122°23'0 0.0
2016-May-01 12:33N 47°40' W 122°23'0 0.0
2016-May-01 11:33N 47°40' W 122°23'0 0.0
2016-May-01 10:34N 47°40' W 122°23'0 0.0
2016-May-01 09:33N 47°40' W 122°23'0 0.0
2016-May-01 08:33N 47°40' W 122°23'0 0.0
2016-May-01 07:33N 47°40' W 122°23'0 0.0
2016-May-01 06:33N 47°40' W 122°23'0 0.0
2016-May-01 05:33N 47°40' W 122°23'0 0.0
2016-May-01 04:34N 47°40' W 122°23'0 0.0
2016-May-01 03:33N 47°40' W 122°23'0 0.0
2016-May-01 02:33N 47°40' W 122°23'0 0.0
2016-May-01 01:33N 47°40' W 122°23'0 0.0
2016-May-01 00:33N 47°40' W 122°23'0 0.0
2016-Apr-30 23:33N 47°40' W 122°23'0 0.0
2016-Apr-30 22:33N 47°40' W 122°23'0 0.0
2016-Apr-30 21:33N 47°40' W 122°23'0 0.0
2016-Apr-30 20:33N 47°40' W 122°23'0 0.0
2016-Apr-30 19:33N 47°40' W 122°23'0 0.0
2016-Apr-30 18:33N 47°40' W 122°23'0 0.0
2016-Apr-30 17:33N 47°40' W 122°23'0 0.0
2016-Apr-30 16:33N 47°40' W 122°23'0 0.0
2016-Apr-30 15:33N 47°40' W 122°23'0 0.0
2016-Apr-30 14:33N 47°40' W 122°23'0 0.0
2016-Apr-30 13:33N 47°40' W 122°23'0 0.0
2016-Apr-30 12:33N 47°40' W 122°23'0 0.0
2016-Apr-30 11:33N 47°40' W 122°23'0 0.0
2016-Apr-30 10:33N 47°40' W 122°23'0 0.0
2016-Apr-30 09:33N 47°40' W 122°23'0 0.0
2016-Apr-30 08:34N 47°40' W 122°23'0 0.0
2016-Apr-30 07:33N 47°40' W 122°23'0 0.0
2016-Apr-30 06:33N 47°40' W 122°23'0 0.0
2016-Apr-30 05:33N 47°40' W 122°23'0 0.0
2016-Apr-30 04:33N 47°40' W 122°23'0 0.0
2016-Apr-30 03:33N 47°40' W 122°23'0 0.0
2016-Apr-30 02:33N 47°40' W 122°23'0 0.0
2016-Apr-30 01:33N 47°40' W 122°23'1 0.9
2016-Apr-30 00:33N 47°40' W 122°24'2 2.5
2016-Apr-29 23:33N 47°42' W 122°24'0 0.4
2016-Apr-29 22:33N 47°43' W 122°24'6 5.8
2016-Apr-29 21:33N 47°37' W 122°23'2 2.1
2016-Apr-29 20:33N 47°35' W 122°21'0 0.0
2016-Apr-29 19:33N 47°35' W 122°21'0 0.0
2016-Apr-29 18:33N 47°35' W 122°21'4 3.6
2016-Apr-29 17:33N 47°38' W 122°25'3 2.6
2016-Apr-29 16:33N 47°40' W 122°23'1 0.6
2016-Apr-29 15:33N 47°40' W 122°23'  
2016-Apr-27 01:33N 47°40' W 122°23'5 4.8
2016-Apr-27 00:34N 47°36' W 122°27'1212.3
2016-Apr-26 23:34N 47°24' W 122°21'5 5.2
2016-Apr-26 22:34N 47°22' W 122°29'0 0.0
2016-Apr-26 21:33N 47°22' W 122°29'2 2.2
2016-Apr-26 20:34N 47°20' W 122°27'9 8.9
2016-Apr-26 19:34N 47°29' W 122°26'1212.1
2016-Apr-26 18:34N 47°41' W 122°28'4 4.0
2016-Apr-26 17:33N 47°40' W 122°23'0 0.0
2016-Apr-26 16:33N 47°40' W 122°23'  
Track history (hours):
 
Tides and Currents Weather Stations Pressure Air Temp Water Temp Dewpoint Dewpoint Depression Visibility Wind Speed Wind Dir Waves Ship Positions

Maritime Instructor

Owner: WASHINGTON, STATE OF, SEATTLE, WA. More information available from US FCC via Universal Licensing System and Coast Guard Vessel Documentation Center.

Last reported at 2016-May-04 02:19 UTC. Time now 2016-May-05 02:48 UTC.
Position N 47°40' W 122°23'.

Length 30 m; draft 2 m.

Type: Ship. MMSI: 303556000.

Date/timePositionNaut miles runAvg speedWind from/ knotsBaromVisibWave heightAir tempDewpointWater temp
2016-May-04 02:19N 47°40' W 122°23'1 1.1
2016-May-04 01:33N 47°40' W 122°24'6 5.6
2016-May-04 00:33N 47°45' W 122°25'8 8.4
2016-May-03 23:34N 47°54' W 122°22'8 7.8
2016-May-03 22:33N 47°59' W 122°14'1 0.8
2016-May-03 21:33N 47°60' W 122°13'0 0.1
2016-May-03 20:33N 47°60' W 122°13'3 3.1
2016-May-03 19:33N 48°01' W 122°18'7 6.7
2016-May-03 18:33N 47°55' W 122°21'9 9.5
2016-May-03 17:33N 47°46' W 122°25'6 6.1
2016-May-03 16:33N 47°40' W 122°23'1 0.5
2016-May-03 15:33N 47°40' W 122°23'0 0.0
2016-May-03 14:33N 47°40' W 122°23'0 0.0
2016-May-03 13:33N 47°40' W 122°23'0 0.0
2016-May-03 12:33N 47°40' W 122°23'0 0.0
2016-May-03 11:33N 47°40' W 122°23'0 0.0
2016-May-03 10:33N 47°40' W 122°23'0 0.0
2016-May-03 09:33N 47°40' W 122°23'0 0.0
2016-May-03 08:34N 47°40' W 122°23'0 0.0
2016-May-03 07:34N 47°40' W 122°23'0 0.0
2016-May-03 06:33N 47°40' W 122°23'0 0.0
2016-May-03 05:33N 47°40' W 122°23'0 0.0
2016-May-03 04:33N 47°40' W 122°23'0 0.0
2016-May-03 03:33N 47°40' W 122°23'0 0.0
2016-May-03 02:33N 47°40' W 122°23'0 0.0
2016-May-03 01:34N 47°40' W 122°23'0 0.0
2016-May-03 00:33N 47°40' W 122°23'0 0.0
2016-May-02 23:33N 47°40' W 122°23'0 0.0
2016-May-02 22:33N 47°40' W 122°23'0 0.0
2016-May-02 21:34N 47°40' W 122°23'0 0.0
2016-May-02 20:33N 47°40' W 122°23'0 0.0
2016-May-02 19:33N 47°40' W 122°23'0 0.0
2016-May-02 18:33N 47°40' W 122°23'0 0.0
2016-May-02 17:33N 47°40' W 122°23'0 0.0
2016-May-02 16:33N 47°40' W 122°23'0 0.0
2016-May-02 15:33N 47°40' W 122°23'0 0.0
2016-May-02 14:33N 47°40' W 122°23'0 0.0
2016-May-02 13:33N 47°40' W 122°23'0 0.0
2016-May-02 12:33N 47°40' W 122°23'0 0.0
2016-May-02 11:33N 47°40' W 122°23'0 0.0
2016-May-02 10:33N 47°40' W 122°23'0 0.0
2016-May-02 09:34N 47°40' W 122°23'0 0.0
2016-May-02 08:33N 47°40' W 122°23'0 0.0
2016-May-02 07:33N 47°40' W 122°23'0 0.0
2016-May-02 06:33N 47°40' W 122°23'0 0.0
2016-May-02 05:33N 47°40' W 122°23'0 0.0
2016-May-02 04:33N 47°40' W 122°23'0 0.0
2016-May-02 03:33N 47°40' W 122°23'0 0.0
2016-May-02 02:33N 47°40' W 122°23'0 0.0
2016-May-02 01:33N 47°40' W 122°23'0 0.0
2016-May-02 00:33N 47°40' W 122°23'0 0.0
2016-May-01 23:33N 47°40' W 122°23'0 0.0
2016-May-01 22:33N 47°40' W 122°23'0 0.0
2016-May-01 21:33N 47°40' W 122°23'0 0.0
2016-May-01 20:33N 47°40' W 122°23'0 0.0
2016-May-01 19:33N 47°40' W 122°23'0 0.0
2016-May-01 18:33N 47°40' W 122°23'0 0.0
2016-May-01 17:33N 47°40' W 122°23'0 0.0
2016-May-01 16:33N 47°40' W 122°23'0 0.0
2016-May-01 15:33N 47°40' W 122°23'0 0.0
2016-May-01 14:33N 47°40' W 122°23'0 0.0
2016-May-01 13:33N 47°40' W 122°23'0 0.0
2016-May-01 12:33N 47°40' W 122°23'0 0.0
2016-May-01 11:33N 47°40' W 122°23'0 0.0
2016-May-01 10:34N 47°40' W 122°23'0 0.0
2016-May-01 09:33N 47°40' W 122°23'0 0.0
2016-May-01 08:33N 47°40' W 122°23'0 0.0
2016-May-01 07:33N 47°40' W 122°23'0 0.0
2016-May-01 06:33N 47°40' W 122°23'0 0.0
2016-May-01 05:33N 47°40' W 122°23'0 0.0
2016-May-01 04:34N 47°40' W 122°23'0 0.0
2016-May-01 03:33N 47°40' W 122°23'0 0.0
2016-May-01 02:33N 47°40' W 122°23'0 0.0
2016-May-01 01:33N 47°40' W 122°23'0 0.0
2016-May-01 00:33N 47°40' W 122°23'0 0.0
2016-Apr-30 23:33N 47°40' W 122°23'0 0.0
2016-Apr-30 22:33N 47°40' W 122°23'0 0.0
2016-Apr-30 21:33N 47°40' W 122°23'0 0.0
2016-Apr-30 20:33N 47°40' W 122°23'0 0.0
2016-Apr-30 19:33N 47°40' W 122°23'0 0.0
2016-Apr-30 18:33N 47°40' W 122°23'0 0.0
2016-Apr-30 17:33N 47°40' W 122°23'0 0.0
2016-Apr-30 16:33N 47°40' W 122°23'0 0.0
2016-Apr-30 15:33N 47°40' W 122°23'0 0.0
2016-Apr-30 14:33N 47°40' W 122°23'0 0.0
2016-Apr-30 13:33N 47°40' W 122°23'0 0.0
2016-Apr-30 12:33N 47°40' W 122°23'0 0.0
2016-Apr-30 11:33N 47°40' W 122°23'0 0.0
2016-Apr-30 10:33N 47°40' W 122°23'0 0.0
2016-Apr-30 09:33N 47°40' W 122°23'0 0.0
2016-Apr-30 08:34N 47°40' W 122°23'0 0.0
2016-Apr-30 07:33N 47°40' W 122°23'0 0.0
2016-Apr-30 06:33N 47°40' W 122°23'0 0.0
2016-Apr-30 05:33N 47°40' W 122°23'0 0.0
2016-Apr-30 04:33N 47°40' W 122°23'0 0.0
2016-Apr-30 03:33N 47°40' W 122°23'0 0.0
2016-Apr-30 02:33N 47°40' W 122°23'0 0.0
2016-Apr-30 01:33N 47°40' W 122°23'1 0.9
2016-Apr-30 00:33N 47°40' W 122°24'2 2.5
2016-Apr-29 23:33N 47°42' W 122°24'0 0.4
2016-Apr-29 22:33N 47°43' W 122°24'6 5.8
2016-Apr-29 21:33N 47°37' W 122°23'2 2.1
2016-Apr-29 20:33N 47°35' W 122°21'0 0.0
2016-Apr-29 19:33N 47°35' W 122°21'0 0.0
2016-Apr-29 18:33N 47°35' W 122°21'4 3.6
2016-Apr-29 17:33N 47°38' W 122°25'3 2.6
2016-Apr-29 16:33N 47°40' W 122°23'1 0.6
2016-Apr-29 15:33N 47°40' W 122°23'  
2016-Apr-27 01:33N 47°40' W 122°23'5 4.8
2016-Apr-27 00:34N 47°36' W 122°27'1212.3
2016-Apr-26 23:34N 47°24' W 122°21'5 5.2
2016-Apr-26 22:34N 47°22' W 122°29'0 0.0
2016-Apr-26 21:33N 47°22' W 122°29'2 2.2
2016-Apr-26 20:34N 47°20' W 122°27'9 8.9
2016-Apr-26 19:34N 47°29' W 122°26'1212.1
2016-Apr-26 18:34N 47°41' W 122°28'4 4.0
2016-Apr-26 17:33N 47°40' W 122°23'0 0.0
2016-Apr-26 16:33N 47°40' W 122°23'  

Dump ship's entire track history